Boissevain, Canada
Current Conditions -  °F | °C
As of 11:55 AM on Thursday 30 Oct 2014 (Local Time) from K06D Reporting Station
Overcast Overcast  
Wind Chill: 16°   Ceiling: 2100
Heat Index: 30°   Visibility: 10mi
Dew Point: 19°   Wind: 25mph
Humidity: 64%   Direction: 10°N
Pressure: 30.38"   Gusts: 33mph
Location:  49.23°N, 100.05°W
Report Text: K06D 301655Z AUTO 01022G29KT 10SM OVC021 M01/M07 A3038 RMK AO2
Loading
Personal Weather Stations






























Interactive Weather Map
Tropical Storm Tracking
New forecast layout! Learn more

10-Day Weather Forecast

Advertisements
Track Severe Weather on mobile